Time;durP1;ratioP1;P1;durP2;ratioP2;P2;SDS_P1;SDS_P2;PMS_P1;PMS_P2;Temp;Humidity;BMP_temperature;BMP_pressure;BME280_temperature;BME280_humidity;BME280_pressure;Samples;Min_cycle;Max_cycle;Signal;HPM_P1;HPM_P2
2023/10/02 00:01:47;;;;;;;6.72;4.15;;;;;;;26.36;43.68;99865.00;5075294;28;20026;-74
2023/10/02 00:04:19;;;;;;;6.95;4.53;;;;;;;26.36;43.35;99862.31;5075237;28;20040;-75
2023/10/02 00:06:50;;;;;;;7.30;4.18;;;;;;;26.36;43.15;99867.69;5076208;28;20032;-73
2023/10/02 00:09:20;;;;;;;6.50;3.97;;;;;;;26.35;43.23;99868.66;5095130;28;20020;-75
2023/10/02 00:11:46;;;;;;;6.78;4.13;;;;;;;26.32;43.28;99860.84;5095328;28;20031;-75
2023/10/02 00:14:22;;;;;;;6.70;4.50;;;;;;;26.33;43.68;99867.94;5095293;28;20027;-75
2023/10/02 00:17:00;;;;;;;7.43;4.28;;;;;;;26.30;43.82;99863.66;5095383;28;20062;-75
2023/10/02 00:19:40;;;;;;;7.07;4.22;;;;;;;26.30;43.50;99857.47;5095311;28;20515;-75
2023/10/02 00:22:34;;;;;;;7.25;4.20;;;;;;;26.29;43.46;99861.09;5095400;28;20028;-74
2023/10/02 00:24:57;;;;;;;7.00;4.20;;;;;;;26.27;43.55;99859.41;5094573;28;20511;-74
2023/10/02 00:27:24;;;;;;;7.47;4.75;;;;;;;26.26;43.80;99852.31;5095263;28;20024;-75
2023/10/02 00:29:53;;;;;;;6.90;4.05;;;;;;;26.24;43.87;99856.97;5093659;28;20399;-75
2023/10/02 00:32:19;;;;;;;6.82;3.67;;;;;;;26.24;43.97;99854.28;5095021;28;20028;-73
2023/10/02 00:34:51;;;;;;;7.65;4.65;;;;;;;26.23;43.38;99854.38;5094784;28;20360;-75
2023/10/02 00:37:16;;;;;;;7.75;4.75;;;;;;;26.23;43.46;99852.59;5094697;28;20020;-74
2023/10/02 00:39:47;;;;;;;8.68;4.65;;;;;;;26.21;43.55;99848.28;5094541;28;20432;-75
2023/10/02 00:42:24;;;;;;;7.90;4.75;;;;;;;26.21;43.43;99851.81;5094583;28;20495;-74
2023/10/02 00:45:03;;;;;;;8.20;4.82;;;;;;;26.20;43.83;99847.41;5094532;28;20708;-74
2023/10/02 00:50:23;;;;;;;8.02;4.38;;;;;;;26.22;43.43;99845.50;5094766;28;20039;-75
2023/10/02 00:52:56;;;;;;;;;;;;;;;26.29;43.65;99845.06;5093545;28;20036;-75
2023/10/02 00:55:35;;;;;;;7.38;5.00;;;;;;;26.28;43.06;99836.16;5094798;28;19912;-74
2023/10/02 00:58:05;;;;;;;9.15;4.95;;;;;;;26.30;43.15;99833.38;5093167;28;20224;-75
2023/10/02 01:00:42;;;;;;;9.02;4.82;;;;;;;26.33;43.01;99825.13;5100357;28;20028;-74
2023/10/02 01:03:14;;;;;;;7.25;4.97;;;;;;;26.33;42.83;99827.81;5093972;28;20516;-75
2023/10/02 01:05:47;;;;;;;8.27;5.05;;;;;;;26.35;42.72;99831.19;5094469;28;20454;-74
2023/10/02 01:08:42;;;;;;;8.00;4.78;;;;;;;26.32;42.15;99828.75;5093963;28;20095;-74
2023/10/02 01:11:13;;;;;;;8.60;5.60;;;;;;;26.30;42.01;99822.69;5094284;28;20523;-74
2023/10/02 01:13:40;;;;;;;8.93;5.30;;;;;;;26.31;42.24;99822.56;5094404;28;20097;-74
2023/10/02 01:16:09;;;;;;;9.23;5.07;;;;;;;26.26;42.42;99816.72;5092939;28;20103;-75
2023/10/02 01:18:39;;;;;;;10.32;5.20;;;;;;;26.28;42.80;99828.13;5093930;28;20498;-74
2023/10/02 01:21:11;;;;;;;9.95;5.80;;;;;;;26.23;42.15;99814.28;5093985;28;20047;-75
2023/10/02 01:26:35;;;;;;;8.88;5.13;;;;;;;26.21;42.88;99822.41;5093993;28;20031;-75
2023/10/02 01:29:03;;;;;;;8.02;5.15;;;;;;;26.17;42.54;99815.59;5093713;28;20024;-74
2023/10/02 01:31:32;;;;;;;9.20;5.63;;;;;;;26.21;42.85;99810.84;5094027;28;20107;-74
2023/10/02 01:33:59;;;;;;;7.70;5.07;;;;;;;26.18;42.85;99817.28;5093756;28;20028;-74
2023/10/02 01:36:31;;;;;;;8.73;5.43;;;;;;;26.17;42.95;99820.06;5093365;28;20108;-74
2023/10/02 01:39:10;;;;;;;9.27;5.93;;;;;;;26.17;43.10;99815.59;5093742;28;20054;-74
2023/10/02 01:41:38;;;;;;;8.88;5.00;;;;;;;26.13;43.09;99814.97;5093649;28;20503;-75
2023/10/02 01:44:11;;;;;;;9.45;5.32;;;;;;;26.13;43.07;99816.78;5093731;28;20059;-75
2023/10/02 01:46:50;;;;;;;8.60;4.95;;;;;;;26.11;42.87;99810.72;5093831;28;20058;-74
2023/10/02 01:49:25;;;;;;;9.43;5.40;;;;;;;26.13;43.17;99808.75;5093621;28;20533;-75
2023/10/02 01:52:02;;;;;;;9.02;5.80;;;;;;;26.14;42.66;99816.66;5093190;28;20052;-74
2023/10/02 01:54:31;;;;;;;7.72;4.57;;;;;;;26.17;42.68;99807.56;5093247;28;20166;-74
2023/10/02 01:56:57;;;;;;;10.15;5.15;;;;;;;26.20;42.60;99807.31;5093472;28;20020;-74
2023/10/02 01:59:24;;;;;;;9.60;5.70;;;;;;;26.20;42.45;99804.63;5093138;28;20096;-75
2023/10/02 02:01:54;;;;;;;10.05;5.90;;;;;;;26.22;42.77;99805.38;5093065;28;20028;-74
2023/10/02 02:04:19;;;;;;;11.20;6.25;;;;;;;26.22;42.32;99802.72;5092858;28;20040;-74
2023/10/02 02:06:51;;;;;;;9.55;5.45;;;;;;;26.22;42.46;99808.06;5092789;28;20034;-75
2023/10/02 02:09:23;;;;;;;8.75;5.20;;;;;;;26.20;42.48;99799.28;5093205;28;20062;-75
2023/10/02 02:12:07;;;;;;;8.80;5.07;;;;;;;26.18;42.86;99800.38;5092357;28;20471;-74
2023/10/02 02:14:41;;;;;;;9.50;5.43;;;;;;;26.14;42.72;99794.41;5093049;28;20035;-75
2023/10/02 02:17:10;;;;;;;8.07;4.88;;;;;;;26.14;42.87;99794.41;5093089;28;20391;-75
2023/10/02 02:19:49;;;;;;;9.00;5.53;;;;;;;26.07;42.84;99793.19;5092830;28;20031;-75
2023/10/02 02:22:18;;;;;;;8.68;5.25;;;;;;;26.05;42.86;99793.31;5092925;28;20093;-74
2023/10/02 02:24:47;;;;;;;9.57;5.47;;;;;;;26.03;42.65;99786.38;5092772;28;20028;-75
2023/10/02 02:27:14;;;;;;;9.80;6.13;;;;;;;25.99;43.09;99785.75;5092983;28;20043;-75
2023/10/02 02:29:39;;;;;;;9.43;5.68;;;;;;;25.95;42.72;99787.81;5092959;28;20491;-74
2023/10/02 02:32:08;;;;;;;8.82;5.35;;;;;;;25.93;42.66;99797.78;5092778;28;20029;-74
2023/10/02 02:34:33;;;;;;;8.63;5.20;;;;;;;25.92;42.80;99787.22;5092167;28;20098;-75
2023/10/02 02:36:59;;;;;;;10.35;5.82;;;;;;;25.89;42.88;99790.97;5092602;28;20107;-74
2023/10/02 02:39:27;;;;;;;9.93;5.90;;;;;;;25.88;42.98;99794.63;5092528;28;20051;-75
2023/10/02 02:42:09;;;;;;;8.23;5.00;;;;;;;25.87;43.43;99790.25;5092792;28;20028;-74
2023/10/02 02:44:46;;;;;;;8.40;5.03;;;;;;;25.89;43.25;99788.28;5092545;28;20063;-74
2023/10/02 02:47:14;;;;;;;9.63;6.10;;;;;;;25.90;43.34;99781.97;5092594;28;20099;-74
2023/10/02 02:49:58;;;;;;;9.25;5.40;;;;;;;25.86;43.25;99783.22;5091495;28;20364;-74
2023/10/02 02:52:26;;;;;;;8.55;5.43;;;;;;;25.91;43.27;99788.19;5092523;28;20451;-74
2023/10/02 02:54:58;;;;;;;10.57;6.13;;;;;;;25.87;43.14;99777.72;5090986;28;20400;-74
2023/10/02 02:57:26;;;;;;;9.38;5.60;;;;;;;25.94;43.04;99778.09;5082711;28;20020;-74
2023/10/02 03:00:24;;;;;;;8.25;5.05;;;;;;;25.90;43.48;99783.81;5092098;28;20046;-75
2023/10/02 03:02:39;;;;;;;9.23;4.47;;;;;;;25.90;43.00;99775.78;5092125;28;20503;-74
2023/10/02 03:05:10;;;;;;;9.10;5.13;;;;;;;25.93;43.04;99780.88;5091996;28;20048;-74
2023/10/02 03:07:36;;;;;;;10.15;5.57;;;;;;;25.93;43.08;99780.88;5092206;28;20070;-74
2023/10/02 03:10:02;;;;;;;9.65;5.43;;;;;;;25.94;42.82;99783.44;5091885;28;20032;-74
2023/10/02 03:12:29;;;;;;;8.23;5.50;;;;;;;25.91;43.30;99788.19;5092237;28;20024;-74
2023/10/02 03:14:58;;;;;;;8.90;5.50;;;;;;;25.92;42.85;99788.06;5091896;28;20100;-74
2023/10/02 03:17:30;;;;;;;8.68;4.95;;;;;;;25.90;43.04;99787.31;5092015;28;20024;-75
2023/10/02 03:19:58;;;;;;;9.65;5.70;;;;;;;25.83;43.08;99794.97;5092116;28;20036;-75
2023/10/02 03:22:24;;;;;;;9.38;5.32;;;;;;;25.79;43.16;99789.97;5092044;28;20020;-75
2023/10/02 03:24:53;;;;;;;8.43;5.05;;;;;;;25.80;43.16;99791.69;5091539;28;20483;-75
2023/10/02 03:27:21;;;;;;;8.35;5.53;;;;;;;25.81;43.42;99793.41;5091996;28;20066;-74
2023/10/02 03:29:49;;;;;;;9.40;5.38;;;;;;;25.78;43.17;99793.63;5091981;28;20033;-75
2023/10/02 03:32:14;;;;;;;9.02;5.10;;;;;;;25.73;43.44;99794.81;5091457;28;20070;-75
2023/10/02 03:34:41;;;;;;;8.95;5.32;;;;;;;25.72;43.27;99795.78;5091986;28;20020;-75
2023/10/02 03:39:59;;;;;;;9.85;5.40;;;;;;;25.71;43.70;99795.91;5091859;28;20111;-74
2023/10/02 03:42:32;;;;;;;9.23;5.15;;;;;;;25.71;43.68;99799.44;5091984;28;20593;-74
2023/10/02 03:44:59;;;;;;;9.27;5.20;;;;;;;25.70;43.65;99792.38;5091770;28;20511;-75
2023/10/02 03:47:30;;;;;;;9.02;4.85;;;;;;;25.71;43.47;99788.75;5091557;28;20071;-75
2023/10/02 03:50:03;;;;;;;10.43;5.47;;;;;;;25.74;43.49;99783.19;5091735;28;20020;-74
2023/10/02 03:52:31;;;;;;;8.80;5.60;;;;;;;25.79;43.74;99784.63;5091777;28;20116;-74
2023/10/02 03:54:57;;;;;;;9.65;5.38;;;;;;;25.78;43.47;99774.91;5090346;28;20545;-75
2023/10/02 03:57:47;;;;;;;10.10;5.63;;;;;;;25.73;43.40;99780.59;5091810;28;20024;-74
2023/10/02 04:00:27;;;;;;;8.32;4.75;;;;;;;25.72;43.33;99785.09;5091616;28;20455;-75
2023/10/02 04:02:54;;;;;;;8.93;5.00;;;;;;;25.69;43.53;99782.66;5107772;28;20058;-74
2023/10/02 04:08:21;;;;;;;9.98;5.13;;;;;;;25.62;43.73;99781.44;5029261;28;20105;-74
2023/10/02 04:10:55;;;;;;;9.13;5.35;;;;;;;25.59;43.47;99778.97;5028525;28;20034;-73
2023/10/02 04:13:24;;;;;;;9.30;5.90;;;;;;;25.59;43.83;99773.63;5029194;28;20092;-75
2023/10/02 04:15:53;;;;;;;7.70;4.88;;;;;;;25.58;43.66;99778.13;5028867;28;20063;-75
2023/10/02 04:18:45;;;;;;;8.40;5.28;;;;;;;25.58;43.84;99775.44;5029095;28;20052;-73
2023/10/02 04:21:12;;;;;;;9.30;5.40;;;;;;;25.56;43.76;99773.88;5028871;28;20521;-75
2023/10/02 04:23:40;;;;;;;9.27;5.10;;;;;;;25.60;43.71;99778.00;5029072;28;20393;-74
2023/10/02 04:26:19;;;;;;;8.35;5.10;;;;;;;25.60;43.88;99767.31;5029165;28;20021;-74
2023/10/02 04:28:49;;;;;;;8.68;5.18;;;;;;;25.62;44.16;99762.72;5029123;28;20084;-74
2023/10/02 04:31:21;;;;;;;8.63;5.05;;;;;;;25.63;43.78;99761.75;5028632;28;20049;-74
2023/10/02 04:34:06;;;;;;;9.40;6.15;;;;;;;25.62;43.50;99762.72;5028784;28;20514;-75
2023/10/02 04:36:34;;;;;;;9.40;5.53;;;;;;;25.55;43.66;99766.81;5030760;28;20025;-74
2023/10/02 04:39:04;;;;;;;10.73;5.10;;;;;;;25.56;43.66;99765.88;5024877;28;20029;-74
2023/10/02 04:41:37;;;;;;;9.05;5.35;;;;;;;25.52;43.71;99761.69;5032244;28;20021;-74
2023/10/02 04:44:04;;;;;;;8.85;4.90;;;;;;;25.52;43.82;99764.38;5066410;28;20596;-75
2023/10/02 04:46:34;;;;;;;8.50;5.18;;;;;;;25.51;43.70;99760.00;5094121;28;20623;-74
2023/10/02 04:49:00;;;;;;;9.50;5.88;;;;;;;25.50;43.88;99761.81;5094752;28;20028;-73
2023/10/02 04:51:29;;;;;;;9.85;5.53;;;;;;;25.55;43.70;99762.34;5094834;28;20373;-74
2023/10/02 04:53:57;;;;;;;9.65;5.80;;;;;;;25.51;43.98;99765.34;5094761;28;20077;-74
2023/10/02 04:56:24;;;;;;;10.77;6.00;;;;;;;25.49;43.70;99762.78;5094477;28;20028;-74
2023/10/02 04:58:51;;;;;;;9.07;5.60;;;;;;;25.48;43.84;99764.59;5094486;28;20477;-74
2023/10/02 05:01:41;;;;;;;8.50;5.57;;;;;;;25.46;43.71;99763.84;5094404;28;20081;-74
2023/10/02 05:04:07;;;;;;;10.52;5.43;;;;;;;25.43;43.47;99763.25;5094359;28;20040;-74
2023/10/02 05:06:44;;;;;;;11.43;6.57;;;;;;;25.41;43.66;99773.16;5094564;28;20377;-75
2023/10/02 05:11:57;;;;;;;8.75;5.03;;;;;;;25.39;43.75;99773.31;5094391;28;20028;-75
2023/10/02 05:14:26;;;;;;;11.05;5.47;;;;;;;25.34;43.61;99772.78;5092804;28;20062;-75
2023/10/02 05:16:56;;;;;;;9.43;5.20;;;;;;;25.32;43.46;99769.38;5086749;28;20036;-74
2023/10/02 05:19:54;;;;;;;10.75;5.30;;;;;;;25.28;43.96;99768.75;5086069;28;20020;-75
2023/10/02 05:22:07;;;;;;;9.68;5.32;;;;;;;25.29;43.96;99774.94;5093837;28;20028;-75
2023/10/02 05:24:34;;;;;;;9.90;5.20;;;;;;;25.31;43.95;99770.34;5093530;28;20357;-75
2023/10/02 05:27:00;;;;;;;9.18;5.07;;;;;;;25.26;44.04;99772.50;5093683;28;20036;-75
2023/10/02 05:29:41;;;;;;;9.98;5.32;;;;;;;25.29;44.23;99778.50;5093482;28;20024;-75
2023/10/02 05:32:29;;;;;;;9.43;5.03;;;;;;;25.33;44.75;99769.25;5090036;28;20491;-75
2023/10/02 05:37:39;;;;;;;9.60;5.38;;;;;;;25.33;44.93;99768.41;5090736;28;20046;-76
2023/10/02 05:45:47;;;;;;;9.20;5.10;;;;;;;25.37;45.23;99764.53;5093401;28;20028;-75
2023/10/02 05:48:27;;;;;;;10.82;5.18;;;;;;;25.37;44.73;99763.69;5092551;28;20024;-75
2023/10/02 05:50:57;;;;;;;10.23;5.07;;;;;;;25.32;44.97;99769.38;5092453;28;20028;-75
2023/10/02 05:53:29;;;;;;;11.50;5.85;;;;;;;25.36;45.14;99762.84;5093554;28;20051;-76
2023/10/02 05:58:33;;;;;;;8.18;4.85;;;;;;;25.31;45.25;99763.19;5093061;28;20024;-76
2023/10/02 06:01:04;;;;;;;9.85;5.60;;;;;;;25.29;45.69;99762.47;5091764;28;20035;-76
2023/10/02 06:03:37;;;;;;;8.30;4.57;;;;;;;25.31;45.41;99775.69;5093033;28;20110;-76
2023/10/02 06:06:15;;;;;;;8.07;4.70;;;;;;;25.31;45.64;99775.69;5091818;28;20073;-75
2023/10/02 06:08:48;;;;;;;11.45;5.25;;;;;;;25.28;45.77;99766.06;5093459;27;20031;-76
2023/10/02 06:11:26;;;;;;;8.80;5.22;;;;;;;25.30;46.17;99785.53;5093320;28;20071;-73
2023/10/02 06:13:55;;;;;;;8.90;5.35;;;;;;;25.30;46.21;99782.00;5109554;28;20065;-75
2023/10/02 06:16:24;;;;;;;9.50;5.47;;;;;;;25.30;45.99;99777.50;5103092;28;20028;-75
2023/10/02 06:19:06;;;;;;;9.13;5.70;;;;;;;25.32;46.35;99788.06;5093091;28;20034;-77
2023/10/02 06:21:40;;;;;;;9.70;5.43;;;;;;;25.31;46.57;99781.03;5093164;28;20046;-76
2023/10/02 06:24:07;;;;;;;8.18;5.07;;;;;;;25.29;46.33;99782.97;5092845;28;20020;-76
2023/10/02 06:26:49;;;;;;;9.98;5.55;;;;;;;25.31;46.91;99789.03;5092806;28;20035;-76
2023/10/02 06:29:25;;;;;;;9.57;5.55;;;;;;;25.28;46.99;99781.25;5092974;28;20397;-76
2023/10/02 06:32:10;;;;;;;8.98;5.38;;;;;;;25.29;46.85;99780.28;5092851;28;20028;-76
2023/10/02 06:34:37;;;;;;;8.27;5.18;;;;;;;25.29;47.09;99778.50;5087180;28;20051;-76
2023/10/02 06:37:07;;;;;;;9.52;5.82;;;;;;;25.29;47.62;99793.66;5092444;28;20028;-76
2023/10/02 06:39:36;;;;;;;7.78;4.88;;;;;;;25.30;47.17;99795.34;5092590;28;20058;-76
2023/10/02 06:42:08;;;;;;;9.52;5.15;;;;;;;25.30;47.55;99787.34;5092571;28;20028;-76
2023/10/02 06:44:42;;;;;;;8.43;5.30;;;;;;;25.29;47.60;99799.84;5086637;28;20025;-76
2023/10/02 06:47:13;;;;;;;8.25;5.35;;;;;;;25.27;47.55;99806.28;5086016;28;20028;-76
2023/10/02 06:49:43;;;;;;;9.65;5.82;;;;;;;25.29;47.69;99809.66;5079490;28;20024;-76
2023/10/02 06:52:15;;;;;;;8.30;5.78;;;;;;;25.25;47.83;99808.19;5090248;28;20032;-76
2023/10/02 06:54:56;;;;;;;8.43;5.70;;;;;;;25.30;48.10;99811.38;5092666;28;20028;-76
2023/10/02 06:57:25;;;;;;;9.40;5.93;;;;;;;25.29;48.24;99815.88;5092662;28;20028;-76
2023/10/02 06:59:51;;;;;;;8.43;5.40;;;;;;;25.31;48.03;99823.75;5090430;28;20051;-76
2023/10/02 07:02:23;;;;;;;7.70;5.60;;;;;;;25.32;48.41;99830.78;5092418;28;20028;-75
2023/10/02 07:04:49;;;;;;;8.95;5.40;;;;;;;25.32;48.10;99823.66;5092231;28;20040;-76
2023/10/02 07:07:20;;;;;;;7.47;5.40;;;;;;;25.35;48.39;99814.56;5092599;28;20028;-76
2023/10/02 07:09:48;;;;;;;8.75;5.60;;;;;;;25.35;48.47;99819.91;5091428;28;20024;-76
2023/10/02 07:12:13;;;;;;;8.98;5.95;;;;;;;25.38;48.42;99817.00;5092478;28;20016;-76
2023/10/02 07:14:41;;;;;;;7.38;5.20;;;;;;;25.37;48.33;99807.28;5089966;28;20450;-78
2023/10/02 07:17:16;;;;;;;8.20;5.88;;;;;;;25.37;48.67;99823.28;5080673;28;20028;-76
2023/10/02 07:19:50;;;;;;;9.02;5.53;;;;;;;25.38;48.29;99825.03;5071718;28;20056;-76
2023/10/02 07:22:23;;;;;;;8.50;5.28;;;;;;;25.40;48.46;99827.56;5072021;28;20443;-76
2023/10/02 07:24:52;;;;;;;8.90;6.47;;;;;;;25.42;48.23;99821.13;5087234;28;20056;-76
2023/10/02 07:27:25;;;;;;;9.15;5.75;;;;;;;25.44;48.32;99832.59;5092298;28;20570;-76
2023/10/02 07:29:58;;;;;;;7.90;5.45;;;;;;;25.45;48.27;99831.63;5091977;28;20028;-75
2023/10/02 07:32:29;;;;;;;9.43;5.90;;;;;;;25.46;48.62;99827.97;5090717;28;20418;-76
2023/10/02 07:34:55;;;;;;;8.55;5.35;;;;;;;25.47;48.39;99827.00;5092252;28;20016;-76
2023/10/02 07:37:24;;;;;;;8.30;5.10;;;;;;;25.50;48.62;99830.41;5092130;28;20391;-75
2023/10/02 07:39:57;;;;;;;8.10;5.43;;;;;;;25.51;48.74;99829.47;5091787;28;20042;-76
2023/10/02 07:42:31;;;;;;;8.98;5.53;;;;;;;25.53;48.40;99827.50;5092237;28;20016;-75
2023/10/02 07:45:11;;;;;;;8.70;5.05;;;;;;;25.52;48.47;99826.66;5092049;28;20095;-76
2023/10/02 07:48:07;;;;;;;7.78;5.15;;;;;;;25.55;47.75;99821.13;5092175;28;20016;-77
2023/10/02 07:50:33;;;;;;;9.48;6.07;;;;;;;25.56;48.58;99832.66;5091687;28;20024;-76
2023/10/02 07:53:06;;;;;;;8.18;5.50;;;;;;;25.58;48.25;99814.69;5091786;28;20435;-76
2023/10/02 07:55:40;;;;;;;9.13;5.75;;;;;;;25.58;48.32;99830.72;5092031;28;20433;-76
2023/10/02 07:58:10;;;;;;;8.23;5.45;;;;;;;25.58;48.74;99833.41;5091882;28;20099;-76
2023/10/02 08:00:41;;;;;;;7.75;5.10;;;;;;;25.58;48.13;99830.72;5091934;28;20032;-76
2023/10/02 08:03:31;;;;;;;7.32;5.35;;;;;;;25.59;48.22;99827.09;5091631;28;20048;-74
2023/10/02 08:05:58;;;;;;;8.82;5.72;;;;;;;25.56;48.45;99827.31;5071859;28;20064;-77
2023/10/02 08:08:33;;;;;;;7.75;5.38;;;;;;;25.56;48.45;99819.31;5077098;28;20016;-76
2023/10/02 08:11:02;;;;;;;8.60;5.50;;;;;;;25.57;48.51;99819.16;5094604;28;20032;-76
2023/10/02 08:13:35;;;;;;;9.23;5.60;;;;;;;25.58;48.89;99828.06;5095660;28;20592;-75
2023/10/02 08:16:11;;;;;;;7.78;5.22;;;;;;;25.62;48.38;99817.97;5095819;28;20027;-76
2023/10/02 08:18:56;;;;;;;8.73;5.40;;;;;;;25.62;48.43;99818.84;5095632;28;20036;-76
2023/10/02 08:21:33;;;;;;;7.47;5.22;;;;;;;25.64;48.27;99824.91;5086821;28;20027;-76
2023/10/02 08:24:11;;;;;;;9.00;5.50;;;;;;;25.62;48.99;99832.22;5095311;28;20111;-75
2023/10/02 08:26:40;;;;;;;7.75;5.55;;;;;;;25.66;48.55;99830.16;5095520;28;20024;-76
2023/10/02 08:29:15;;;;;;;6.97;5.22;;;;;;;25.66;48.32;99825.66;5095181;28;20028;-76
2023/10/02 08:31:43;;;;;;;8.93;5.72;;;;;;;25.65;48.49;99826.63;5095341;28;20048;-76
2023/10/02 08:34:19;;;;;;;8.65;5.18;;;;;;;25.66;48.29;99817.63;5095249;28;20024;-76
2023/10/02 08:37:04;;;;;;;8.15;5.07;;;;;;;25.68;48.54;99810.38;5095184;28;20032;-76
2023/10/02 08:39:37;;;;;;;9.35;5.47;;;;;;;25.71;48.45;99815.47;5094823;28;20157;-76
2023/10/02 08:42:13;;;;;;;7.50;5.20;;;;;;;25.72;48.21;99819.84;5095327;28;20028;-76
2023/10/02 08:44:42;;;;;;;7.75;5.22;;;;;;;25.72;48.20;99811.81;5095032;28;20031;-77
2023/10/02 08:47:24;;;;;;;9.13;5.68;;;;;;;25.74;47.90;99820.59;5095228;28;20085;-76
2023/10/02 08:50:10;;;;;;;7.75;5.22;;;;;;;25.74;47.96;99793.88;5094878;28;20103;-76
2023/10/02 08:52:39;;;;;;;8.07;5.25;;;;;;;25.77;48.40;99821.31;5094854;28;20107;-75
2023/10/02 08:55:34;;;;;;;7.47;5.05;;;;;;;25.79;47.89;99816.69;5094860;28;20137;-77
2023/10/02 08:58:15;;;;;;;7.50;4.70;;;;;;;25.80;47.87;99835.28;5094662;28;20024;-75
2023/10/02 09:01:05;;;;;;;8.05;4.43;;;;;;;25.82;47.75;99811.13;5094837;28;20029;-75
2023/10/02 09:03:30;;;;;;;8.93;5.30;;;;;;;25.82;48.04;99811.97;5094432;28;20044;-76
2023/10/02 09:06:25;;;;;;;7.13;5.38;;;;;;;25.83;48.27;99820.84;5094498;28;20035;-76
2023/10/02 09:09:12;;;;;;;8.98;5.25;;;;;;;25.83;48.05;99818.19;5094255;28;20063;-76
2023/10/02 09:11:35;;;;;;;8.35;5.53;;;;;;;25.84;47.80;99826.09;5094480;28;20039;-76
2023/10/02 09:17:16;;;;;;;9.18;5.32;;;;;;;25.86;47.97;99823.31;5094650;28;20024;-76
2023/10/02 09:20:04;;;;;;;7.32;4.93;;;;;;;25.86;48.28;99824.13;5094700;28;20070;-78
2023/10/02 09:22:37;;;;;;;7.57;4.82;;;;;;;25.88;48.17;99826.69;5093129;28;20032;-77
2023/10/02 09:25:10;;;;;;;7.53;4.85;;;;;;;25.88;48.39;99821.34;5094470;28;20357;-77
2023/10/02 09:28:04;;;;;;;7.15;4.55;;;;;;;25.87;48.10;99822.31;5094394;28;20030;-76
2023/10/02 09:30:36;;;;;;;7.38;5.60;;;;;;;25.88;48.09;99818.69;5093950;28;20897;-75
2023/10/02 09:33:22;;;;;;;6.78;4.10;;;;;;;25.88;48.33;99824.03;5094037;28;20020;-76
2023/10/02 09:35:51;;;;;;;7.95;5.05;;;;;;;25.89;48.18;99819.53;5094754;28;20020;-76
2023/10/02 09:38:17;;;;;;;7.47;4.97;;;;;;;25.89;47.97;99807.00;5102183;28;20016;-76
2023/10/02 09:41:15;;;;;;;7.93;5.30;;;;;;;25.90;48.29;99807.88;5093844;28;20114;-76
2023/10/02 09:43:41;;;;;;;12.00;5.47;;;;;;;25.89;48.04;99801.66;5093823;28;20039;-76
2023/10/02 09:46:20;;;;;;;8.70;5.68;;;;;;;25.90;48.08;99811.38;5094104;28;20072;-76
2023/10/02 09:49:19;;;;;;;7.18;5.03;;;;;;;25.91;48.21;99814.91;5093902;28;20016;-76
2023/10/02 09:52:15;;;;;;;8.32;4.85;;;;;;;25.92;48.07;99812.13;5093943;28;20089;-77
2023/10/02 09:55:03;;;;;;;7.53;4.82;;;;;;;25.92;48.28;99822.84;5093748;28;20564;-76
2023/10/02 09:57:34;;;;;;;7.28;4.93;;;;;;;25.92;48.02;99812.13;5092347;28;20031;-77
2023/10/02 10:00:33;;;;;;;6.75;4.75;;;;;;;25.93;48.37;99819.19;5093799;28;20472;-76
2023/10/02 10:03:23;;;;;;;7.38;5.43;;;;;;;25.94;48.12;99826.22;5093225;28;20043;-76
2023/10/02 10:06:06;;;;;;;7.35;5.13;;;;;;;25.95;48.01;99827.94;5093515;28;20522;-76
2023/10/02 10:11:42;;;;;;;8.20;5.28;;;;;;;25.98;48.04;99817.00;5073180;28;20093;-77
2023/10/02 10:14:44;;;;;;;7.60;4.80;;;;;;;25.99;48.23;99802.66;5073276;28;20111;-76
2023/10/02 10:17:16;;;;;;;7.80;4.40;;;;;;;25.99;48.21;99816.03;5073026;28;20039;-77
2023/10/02 10:20:08;;;;;;;7.68;4.97;;;;;;;26.01;48.26;99803.38;5072562;28;20025;-77
2023/10/02 10:22:50;;;;;;;8.35;5.10;;;;;;;26.01;48.10;99806.06;5072795;28;20104;-75
2023/10/02 10:28:06;;;;;;;6.95;4.80;;;;;;;26.05;48.07;99805.84;5093210;28;20032;-77
2023/10/02 10:30:49;;;;;;;7.65;4.82;;;;;;;26.05;48.11;99805.84;5092936;28;20453;-77
2023/10/02 10:33:16;;;;;;;9.43;5.15;;;;;;;26.06;48.20;99802.19;5089761;28;20055;-77
2023/10/02 10:35:49;;;;;;;7.80;4.53;;;;;;;26.08;47.87;99794.88;5092732;28;20028;-77
2023/10/02 10:41:00;;;;;;;8.35;4.72;;;;;;;26.10;47.85;99782.28;5093164;28;20032;-77
2023/10/02 10:43:43;;;;;;;8.57;5.43;;;;;;;26.12;47.82;99783.00;5093010;28;20054;-77
2023/10/02 10:46:28;;;;;;;8.48;5.32;;;;;;;26.13;48.17;99765.97;5090606;28;20028;-77
2023/10/02 10:49:10;;;;;;;8.80;5.28;;;;;;;26.15;48.19;99785.44;5092707;28;20396;-77
2023/10/02 10:51:37;;;;;;;8.77;5.38;;;;;;;26.16;48.00;99786.28;5092617;28;20385;-77
2023/10/02 10:54:27;;;;;;;7.22;4.80;;;;;;;26.16;47.92;99787.13;5092823;28;20102;-77
2023/10/02 10:56:56;;;;;;;7.75;5.30;;;;;;;26.18;48.06;99782.50;5090738;28;20444;-77
2023/10/02 10:59:24;;;;;;;8.60;5.85;;;;;;;26.19;48.07;99802.94;5092601;28;20464;-76
2023/10/02 11:04:47;;;;;;;7.97;5.03;;;;;;;26.21;48.00;99801.00;5092362;28;20086;-77
2023/10/02 11:07:32;;;;;;;8.35;5.10;;;;;;;26.22;48.20;99802.72;5084865;28;20024;-77
2023/10/02 11:12:56;;;;;;;9.23;5.28;;;;;;;26.24;48.03;99816.84;5092421;28;20042;-77
2023/10/02 11:16:07;;;;;;;8.52;5.25;;;;;;;26.25;48.17;99813.19;5092277;28;20032;-77
2023/10/02 11:18:18;;;;;;;9.85;6.07;;;;;;;26.27;48.19;99807.72;5086178;28;20040;-77
2023/10/02 11:20:49;;;;;;;9.50;5.88;;;;;;;26.28;48.16;99817.44;5092629;28;20369;-77
2023/10/02 11:23:30;;;;;;;7.53;5.07;;;;;;;26.29;48.04;99829.00;5092193;28;20496;-76
2023/10/02 11:25:58;;;;;;;8.50;5.35;;;;;;;26.30;48.13;99820.88;5092197;28;20024;-77
2023/10/02 11:28:32;;;;;;;8.38;5.50;;;;;;;26.31;48.09;99816.34;5092012;28;20020;-76
2023/10/02 11:31:36;;;;;;;9.88;5.47;;;;;;;26.31;48.46;99817.22;5091820;28;20107;-77
2023/10/02 11:34:07;;;;;;;9.02;5.40;;;;;;;26.33;48.15;99809.09;5092117;28;20032;-76
2023/10/02 11:36:35;;;;;;;9.35;5.55;;;;;;;26.34;48.40;99805.44;5092358;28;20408;-76
2023/10/02 11:39:08;;;;;;;7.63;5.55;;;;;;;26.34;48.09;99794.72;5091910;28;20028;-77
2023/10/02 11:41:35;;;;;;;8.38;5.63;;;;;;;26.36;48.40;99798.13;5091966;28;20107;-77
2023/10/02 11:44:00;;;;;;;7.95;5.38;;;;;;;26.37;48.26;99794.47;5092123;28;20028;-77
2023/10/02 11:46:26;;;;;;;9.13;5.43;;;;;;;26.39;48.14;99789.88;5095597;28;20031;-77
2023/10/02 11:48:51;;;;;;;9.48;5.82;;;;;;;26.39;48.37;99793.38;5096009;28;20074;-77
2023/10/02 11:51:17;;;;;;;7.90;5.10;;;;;;;26.41;48.32;99803.97;5095810;28;20107;-77
2023/10/02 11:53:42;;;;;;;9.38;5.97;;;;;;;26.41;48.10;99798.63;5095284;28;20024;-77
2023/10/02 11:56:08;;;;;;;8.60;5.57;;;;;;;26.42;48.21;99797.63;5096258;28;20052;-76
2023/10/02 11:58:34;;;;;;;7.88;5.32;;;;;;;26.44;48.10;99793.00;5095985;28;20062;-76
2023/10/02 12:01:04;;;;;;;9.70;5.93;;;;;;;26.44;48.27;99768.91;5095319;28;20085;-76
2023/10/02 12:03:36;;;;;;;8.45;5.47;;;;;;;26.45;48.41;99776.00;5095474;28;20539;-77
2023/10/02 12:06:01;;;;;;;8.05;5.53;;;;;;;26.46;48.13;99756.28;5095953;28;20111;-77
2023/10/02 12:08:27;;;;;;;8.50;5.65;;;;;;;26.47;48.12;99768.69;5094695;28;20048;-76
2023/10/02 12:10:55;;;;;;;7.75;5.25;;;;;;;26.48;47.90;99775.75;5095586;28;20079;-77
2023/10/02 12:13:21;;;;;;;7.95;5.45;;;;;;;26.50;48.12;99775.63;5095419;28;20027;-77
2023/10/02 12:15:47;;;;;;;10.25;6.40;;;;;;;26.50;48.48;99775.63;5095241;28;20016;-77
2023/10/02 12:18:12;;;;;;;8.25;5.28;;;;;;;26.51;48.24;99766.63;5095868;28;20162;-76
2023/10/02 12:20:39;;;;;;;8.02;5.65;;;;;;;26.52;48.13;99763.84;5095581;28;20055;-77
2023/10/02 12:23:04;;;;;;;9.32;5.45;;;;;;;26.54;48.60;99764.53;5095287;28;20476;-77
2023/10/02 12:25:31;;;;;;;9.18;5.60;;;;;;;26.53;48.47;99752.16;5095480;28;20024;-76
2023/10/02 12:27:56;;;;;;;10.20;6.72;;;;;;;26.56;48.04;99750.19;5095620;28;20021;-77
2023/10/02 12:30:21;;;;;;;8.85;5.60;;;;;;;26.56;48.27;99745.69;5094985;28;20039;-76
2023/10/02 12:32:49;;;;;;;10.20;5.68;;;;;;;26.57;48.32;99751.91;5093947;28;20024;-76
2023/10/02 12:35:16;;;;;;;8.38;5.65;;;;;;;26.58;48.15;99748.25;5094044;28;20469;-77
2023/10/02 12:37:42;;;;;;;9.75;5.72;;;;;;;26.60;48.23;99747.16;5095545;28;20028;-76
2023/10/02 12:40:12;;;;;;;8.25;5.65;;;;;;;26.59;48.58;99750.81;5095362;28;20499;-77
2023/10/02 12:42:37;;;;;;;8.50;5.88;;;;;;;26.60;48.37;99738.28;5095116;28;20031;-76
2023/10/02 12:45:06;;;;;;;10.05;6.25;;;;;;;26.62;48.36;99738.97;5094922;28;20028;-76